sensor_id;sensor_type;location;lat;lon;timestamp;P1;durP1;ratioP1;P2;durP2;ratioP2
69410;SDS011;56604;48.652;9.194;2024-03-17T00:00:22;16.13;;;9.90;;
69410;SDS011;56604;48.652;9.194;2024-03-17T00:02:48;11.70;;;9.13;;
69410;SDS011;56604;48.652;9.194;2024-03-17T00:05:13;15.83;;;10.87;;
69410;SDS011;56604;48.652;9.194;2024-03-17T00:07:40;15.70;;;11.27;;
69410;SDS011;56604;48.652;9.194;2024-03-17T00:10:05;17.37;;;11.10;;
69410;SDS011;56604;48.652;9.194;2024-03-17T00:12:32;16.73;;;12.77;;
69410;SDS011;56604;48.652;9.194;2024-03-17T00:14:58;19.77;;;12.30;;
69410;SDS011;56604;48.652;9.194;2024-03-17T00:17:23;20.90;;;14.07;;
69410;SDS011;56604;48.652;9.194;2024-03-17T00:19:49;18.30;;;12.60;;
69410;SDS011;56604;48.652;9.194;2024-03-17T00:22:14;18.87;;;12.43;;
69410;SDS011;56604;48.652;9.194;2024-03-17T00:24:40;17.20;;;11.67;;
69410;SDS011;56604;48.652;9.194;2024-03-17T00:27:06;22.63;;;14.00;;
69410;SDS011;56604;48.652;9.194;2024-03-17T00:29:31;17.60;;;12.30;;
69410;SDS011;56604;48.652;9.194;2024-03-17T00:31:58;16.40;;;11.23;;
69410;SDS011;56604;48.652;9.194;2024-03-17T00:34:23;18.60;;;12.47;;
69410;SDS011;56604;48.652;9.194;2024-03-17T00:36:49;20.87;;;13.57;;
69410;SDS011;56604;48.652;9.194;2024-03-17T00:39:14;23.10;;;14.63;;
69410;SDS011;56604;48.652;9.194;2024-03-17T00:41:40;19.40;;;12.27;;
69410;SDS011;56604;48.652;9.194;2024-03-17T00:44:05;14.23;;;11.20;;
69410;SDS011;56604;48.652;9.194;2024-03-17T00:46:31;13.30;;;11.20;;
69410;SDS011;56604;48.652;9.194;2024-03-17T00:48:58;20.10;;;13.50;;
69410;SDS011;56604;48.652;9.194;2024-03-17T00:51:23;22.27;;;14.70;;
69410;SDS011;56604;48.652;9.194;2024-03-17T00:53:48;22.37;;;13.53;;
69410;SDS011;56604;48.652;9.194;2024-03-17T00:56:14;20.60;;;14.07;;
69410;SDS011;56604;48.652;9.194;2024-03-17T00:58:39;21.87;;;14.50;;
69410;SDS011;56604;48.652;9.194;2024-03-17T01:01:05;19.23;;;14.63;;
69410;SDS011;56604;48.652;9.194;2024-03-17T01:03:30;20.43;;;13.83;;
69410;SDS011;56604;48.652;9.194;2024-03-17T01:05:56;17.93;;;13.27;;
69410;SDS011;56604;48.652;9.194;2024-03-17T01:08:21;21.03;;;13.90;;
69410;SDS011;56604;48.652;9.194;2024-03-17T01:10:47;22.83;;;12.90;;
69410;SDS011;56604;48.652;9.194;2024-03-17T01:13:16;18.60;;;13.00;;
69410;SDS011;56604;48.652;9.194;2024-03-17T01:15:42;25.70;;;14.73;;
69410;SDS011;56604;48.652;9.194;2024-03-17T01:18:09;23.73;;;15.77;;
69410;SDS011;56604;48.652;9.194;2024-03-17T01:20:35;21.27;;;13.70;;
69410;SDS011;56604;48.652;9.194;2024-03-17T01:23:02;26.47;;;15.70;;
69410;SDS011;56604;48.652;9.194;2024-03-17T01:25:28;22.87;;;14.00;;
69410;SDS011;56604;48.652;9.194;2024-03-17T01:27:54;21.73;;;14.40;;
69410;SDS011;56604;48.652;9.194;2024-03-17T01:30:20;20.47;;;13.53;;
69410;SDS011;56604;48.652;9.194;2024-03-17T01:32:45;15.93;;;11.13;;
69410;SDS011;56604;48.652;9.194;2024-03-17T01:35:11;23.10;;;12.13;;
69410;SDS011;56604;48.652;9.194;2024-03-17T01:37:37;17.00;;;12.00;;
69410;SDS011;56604;48.652;9.194;2024-03-17T01:40:02;16.37;;;11.00;;
69410;SDS011;56604;48.652;9.194;2024-03-17T01:42:33;14.17;;;9.90;;
69410;SDS011;56604;48.652;9.194;2024-03-17T01:44:58;12.00;;;8.33;;
69410;SDS011;56604;48.652;9.194;2024-03-17T01:47:24;11.60;;;8.50;;
69410;SDS011;56604;48.652;9.194;2024-03-17T01:49:50;22.43;;;9.70;;
69410;SDS011;56604;48.652;9.194;2024-03-17T01:52:17;10.30;;;8.17;;
69410;SDS011;56604;48.652;9.194;2024-03-17T01:54:43;10.77;;;8.47;;
69410;SDS011;56604;48.652;9.194;2024-03-17T01:57:11;15.33;;;8.87;;
69410;SDS011;56604;48.652;9.194;2024-03-17T01:59:37;13.80;;;9.23;;
69410;SDS011;56604;48.652;9.194;2024-03-17T02:02:04;11.30;;;7.60;;
69410;SDS011;56604;48.652;9.194;2024-03-17T02:04:30;12.00;;;7.63;;
69410;SDS011;56604;48.652;9.194;2024-03-17T02:06:55;8.73;;;7.00;;
69410;SDS011;56604;48.652;9.194;2024-03-17T02:09:21;11.37;;;6.70;;
69410;SDS011;56604;48.652;9.194;2024-03-17T02:11:47;9.63;;;6.80;;
69410;SDS011;56604;48.652;9.194;2024-03-17T02:14:12;13.40;;;6.73;;
69410;SDS011;56604;48.652;9.194;2024-03-17T02:16:42;9.93;;;6.33;;
69410;SDS011;56604;48.652;9.194;2024-03-17T02:19:08;7.37;;;6.63;;
69410;SDS011;56604;48.652;9.194;2024-03-17T02:21:33;10.20;;;6.20;;
69410;SDS011;56604;48.652;9.194;2024-03-17T02:23:59;9.07;;;5.77;;
69410;SDS011;56604;48.652;9.194;2024-03-17T02:26:25;9.10;;;6.00;;
69410;SDS011;56604;48.652;9.194;2024-03-17T02:28:51;8.10;;;6.13;;
69410;SDS011;56604;48.652;9.194;2024-03-17T02:31:17;11.00;;;5.60;;
69410;SDS011;56604;48.652;9.194;2024-03-17T02:33:43;6.57;;;5.90;;
69410;SDS011;56604;48.652;9.194;2024-03-17T02:36:09;7.23;;;5.90;;
69410;SDS011;56604;48.652;9.194;2024-03-17T02:38:36;18.23;;;8.27;;
69410;SDS011;56604;48.652;9.194;2024-03-17T02:41:21;9.80;;;7.43;;
69410;SDS011;56604;48.652;9.194;2024-03-17T02:43:47;12.50;;;9.27;;
69410;SDS011;56604;48.652;9.194;2024-03-17T02:46:13;19.93;;;9.77;;
69410;SDS011;56604;48.652;9.194;2024-03-17T02:48:40;14.87;;;10.93;;
69410;SDS011;56604;48.652;9.194;2024-03-17T02:51:15;18.03;;;12.50;;
69410;SDS011;56604;48.652;9.194;2024-03-17T02:53:42;22.60;;;13.97;;
69410;SDS011;56604;48.652;9.194;2024-03-17T02:56:09;23.33;;;14.50;;
69410;SDS011;56604;48.652;9.194;2024-03-17T02:58:36;25.90;;;13.73;;
69410;SDS011;56604;48.652;9.194;2024-03-17T03:01:03;24.30;;;15.23;;
69410;SDS011;56604;48.652;9.194;2024-03-17T03:03:29;23.70;;;14.30;;
69410;SDS011;56604;48.652;9.194;2024-03-17T03:05:55;27.43;;;14.97;;
69410;SDS011;56604;48.652;9.194;2024-03-17T03:08:21;20.57;;;14.67;;
69410;SDS011;56604;48.652;9.194;2024-03-17T03:10:48;23.17;;;14.70;;
69410;SDS011;56604;48.652;9.194;2024-03-17T03:13:13;26.57;;;17.17;;
69410;SDS011;56604;48.652;9.194;2024-03-17T03:15:38;26.90;;;18.43;;
69410;SDS011;56604;48.652;9.194;2024-03-17T03:18:05;27.83;;;18.10;;
69410;SDS011;56604;48.652;9.194;2024-03-17T03:20:30;28.90;;;18.53;;
69410;SDS011;56604;48.652;9.194;2024-03-17T03:22:56;28.70;;;18.67;;
69410;SDS011;56604;48.652;9.194;2024-03-17T03:25:21;37.43;;;18.80;;
69410;SDS011;56604;48.652;9.194;2024-03-17T03:27:47;32.10;;;17.90;;
69410;SDS011;56604;48.652;9.194;2024-03-17T03:30:12;29.17;;;19.07;;
69410;SDS011;56604;48.652;9.194;2024-03-17T03:32:40;30.87;;;18.87;;
69410;SDS011;56604;48.652;9.194;2024-03-17T03:35:06;35.40;;;19.77;;
69410;SDS011;56604;48.652;9.194;2024-03-17T03:37:31;38.37;;;21.47;;
69410;SDS011;56604;48.652;9.194;2024-03-17T03:39:57;37.73;;;21.27;;
69410;SDS011;56604;48.652;9.194;2024-03-17T03:42:23;37.37;;;21.50;;
69410;SDS011;56604;48.652;9.194;2024-03-17T03:44:49;40.47;;;22.30;;
69410;SDS011;56604;48.652;9.194;2024-03-17T03:47:14;41.87;;;22.77;;
69410;SDS011;56604;48.652;9.194;2024-03-17T03:49:40;36.67;;;22.30;;
69410;SDS011;56604;48.652;9.194;2024-03-17T03:52:05;36.27;;;21.73;;
69410;SDS011;56604;48.652;9.194;2024-03-17T03:54:31;39.10;;;22.37;;
69410;SDS011;56604;48.652;9.194;2024-03-17T03:56:56;41.27;;;23.80;;
69410;SDS011;56604;48.652;9.194;2024-03-17T03:59:22;37.97;;;23.27;;
69410;SDS011;56604;48.652;9.194;2024-03-17T04:01:47;43.03;;;24.37;;
69410;SDS011;56604;48.652;9.194;2024-03-17T04:04:15;41.33;;;23.67;;
69410;SDS011;56604;48.652;9.194;2024-03-17T04:06:41;39.93;;;22.83;;
69410;SDS011;56604;48.652;9.194;2024-03-17T04:09:06;42.00;;;22.73;;
69410;SDS011;56604;48.652;9.194;2024-03-17T04:11:34;40.83;;;22.90;;
69410;SDS011;56604;48.652;9.194;2024-03-17T04:14:01;33.63;;;21.40;;
69410;SDS011;56604;48.652;9.194;2024-03-17T04:16:27;40.93;;;22.70;;
69410;SDS011;56604;48.652;9.194;2024-03-17T04:18:53;40.73;;;21.30;;
69410;SDS011;56604;48.652;9.194;2024-03-17T04:21:18;33.33;;;20.00;;
69410;SDS011;56604;48.652;9.194;2024-03-17T04:23:44;39.23;;;21.07;;
69410;SDS011;56604;48.652;9.194;2024-03-17T04:26:09;28.20;;;19.30;;
69410;SDS011;56604;48.652;9.194;2024-03-17T04:28:35;25.80;;;16.60;;
69410;SDS011;56604;48.652;9.194;2024-03-17T04:31:06;24.90;;;15.67;;
69410;SDS011;56604;48.652;9.194;2024-03-17T04:33:33;23.60;;;14.43;;
69410;SDS011;56604;48.652;9.194;2024-03-17T04:35:58;16.67;;;12.90;;
69410;SDS011;56604;48.652;9.194;2024-03-17T04:38:24;19.57;;;12.90;;
69410;SDS011;56604;48.652;9.194;2024-03-17T04:40:50;19.60;;;14.27;;
69410;SDS011;56604;48.652;9.194;2024-03-17T04:43:16;22.03;;;13.47;;
69410;SDS011;56604;48.652;9.194;2024-03-17T04:45:42;19.97;;;13.10;;
69410;SDS011;56604;48.652;9.194;2024-03-17T04:48:09;15.93;;;12.23;;
69410;SDS011;56604;48.652;9.194;2024-03-17T04:50:34;16.60;;;11.83;;
69410;SDS011;56604;48.652;9.194;2024-03-17T04:53:00;17.30;;;12.70;;
69410;SDS011;56604;48.652;9.194;2024-03-17T04:55:25;16.10;;;11.33;;
69410;SDS011;56604;48.652;9.194;2024-03-17T04:57:51;21.00;;;11.87;;
69410;SDS011;56604;48.652;9.194;2024-03-17T05:00:16;15.20;;;12.27;;
69410;SDS011;56604;48.652;9.194;2024-03-17T05:02:44;17.90;;;11.60;;
69410;SDS011;56604;48.652;9.194;2024-03-17T05:05:10;16.10;;;12.27;;
69410;SDS011;56604;48.652;9.194;2024-03-17T05:07:35;21.13;;;11.80;;
69410;SDS011;56604;48.652;9.194;2024-03-17T05:10:04;16.40;;;11.00;;
69410;SDS011;56604;48.652;9.194;2024-03-17T05:12:30;15.90;;;11.57;;
69410;SDS011;56604;48.652;9.194;2024-03-17T05:14:56;15.40;;;11.07;;
69410;SDS011;56604;48.652;9.194;2024-03-17T05:17:21;13.37;;;11.23;;
69410;SDS011;56604;48.652;9.194;2024-03-17T05:19:46;13.73;;;11.10;;
69410;SDS011;56604;48.652;9.194;2024-03-17T05:22:12;13.93;;;10.90;;
69410;SDS011;56604;48.652;9.194;2024-03-17T05:24:39;14.30;;;10.77;;
69410;SDS011;56604;48.652;9.194;2024-03-17T05:27:04;17.60;;;11.20;;
69410;SDS011;56604;48.652;9.194;2024-03-17T05:29:29;13.80;;;11.17;;
69410;SDS011;56604;48.652;9.194;2024-03-17T05:31:55;15.37;;;11.40;;
69410;SDS011;56604;48.652;9.194;2024-03-17T05:34:21;17.37;;;11.70;;
69410;SDS011;56604;48.652;9.194;2024-03-17T05:36:48;14.70;;;11.17;;
69410;SDS011;56604;48.652;9.194;2024-03-17T05:39:13;14.70;;;11.50;;
69410;SDS011;56604;48.652;9.194;2024-03-17T05:41:38;17.23;;;11.03;;
69410;SDS011;56604;48.652;9.194;2024-03-17T05:44:04;15.43;;;10.87;;
69410;SDS011;56604;48.652;9.194;2024-03-17T05:46:29;13.97;;;10.83;;
69410;SDS011;56604;48.652;9.194;2024-03-17T05:48:55;17.93;;;12.43;;
69410;SDS011;56604;48.652;9.194;2024-03-17T05:51:20;19.43;;;12.27;;
69410;SDS011;56604;48.652;9.194;2024-03-17T05:53:47;22.20;;;16.03;;
69410;SDS011;56604;48.652;9.194;2024-03-17T05:56:13;38.30;;;27.03;;
69410;SDS011;56604;48.652;9.194;2024-03-17T05:58:40;23.80;;;14.20;;
69410;SDS011;56604;48.652;9.194;2024-03-17T06:01:06;25.63;;;16.93;;
69410;SDS011;56604;48.652;9.194;2024-03-17T06:03:33;29.63;;;18.23;;
69410;SDS011;56604;48.652;9.194;2024-03-17T06:06:01;32.33;;;19.77;;
69410;SDS011;56604;48.652;9.194;2024-03-17T06:08:26;29.43;;;16.83;;
69410;SDS011;56604;48.652;9.194;2024-03-17T06:10:52;21.70;;;13.47;;
69410;SDS011;56604;48.652;9.194;2024-03-17T06:13:17;24.70;;;12.47;;
69410;SDS011;56604;48.652;9.194;2024-03-17T06:15:43;17.33;;;12.03;;
69410;SDS011;56604;48.652;9.194;2024-03-17T06:18:11;23.43;;;12.13;;
69410;SDS011;56604;48.652;9.194;2024-03-17T06:20:42;19.47;;;12.57;;
69410;SDS011;56604;48.652;9.194;2024-03-17T06:23:15;27.30;;;15.10;;
69410;SDS011;56604;48.652;9.194;2024-03-17T06:28:08;28.00;;;18.00;;
69410;SDS011;56604;48.652;9.194;2024-03-17T06:30:35;22.27;;;14.50;;
69410;SDS011;56604;48.652;9.194;2024-03-17T06:33:01;19.70;;;13.50;;
69410;SDS011;56604;48.652;9.194;2024-03-17T06:35:27;18.40;;;13.53;;
69410;SDS011;56604;48.652;9.194;2024-03-17T06:37:58;27.13;;;18.17;;
69410;SDS011;56604;48.652;9.194;2024-03-17T06:40:24;21.40;;;13.63;;
69410;SDS011;56604;48.652;9.194;2024-03-17T06:42:50;19.03;;;10.90;;
69410;SDS011;56604;48.652;9.194;2024-03-17T06:45:15;20.33;;;10.17;;
69410;SDS011;56604;48.652;9.194;2024-03-17T06:47:42;32.97;;;10.50;;
69410;SDS011;56604;48.652;9.194;2024-03-17T06:50:09;17.27;;;11.57;;
69410;SDS011;56604;48.652;9.194;2024-03-17T06:52:35;11.03;;;9.17;;
69410;SDS011;56604;48.652;9.194;2024-03-17T06:55:00;9.87;;;8.40;;
69410;SDS011;56604;48.652;9.194;2024-03-17T06:57:26;9.50;;;7.03;;
69410;SDS011;56604;48.652;9.194;2024-03-17T06:59:51;14.73;;;8.50;;
69410;SDS011;56604;48.652;9.194;2024-03-17T07:02:17;9.13;;;8.00;;
69410;SDS011;56604;48.652;9.194;2024-03-17T07:04:46;11.37;;;7.80;;
69410;SDS011;56604;48.652;9.194;2024-03-17T07:07:13;8.53;;;7.70;;
69410;SDS011;56604;48.652;9.194;2024-03-17T07:09:39;7.30;;;6.60;;
69410;SDS011;56604;48.652;9.194;2024-03-17T07:12:09;7.30;;;5.90;;
69410;SDS011;56604;48.652;9.194;2024-03-17T07:14:36;6.73;;;6.03;;
69410;SDS011;56604;48.652;9.194;2024-03-17T07:17:02;7.43;;;6.03;;
69410;SDS011;56604;48.652;9.194;2024-03-17T07:19:27;10.50;;;6.20;;
69410;SDS011;56604;48.652;9.194;2024-03-17T07:21:53;7.57;;;5.97;;
69410;SDS011;56604;48.652;9.194;2024-03-17T07:24:19;9.13;;;6.70;;
69410;SDS011;56604;48.652;9.194;2024-03-17T07:26:47;8.73;;;7.10;;
69410;SDS011;56604;48.652;9.194;2024-03-17T07:29:13;9.10;;;7.63;;
69410;SDS011;56604;48.652;9.194;2024-03-17T07:31:38;7.73;;;7.00;;
69410;SDS011;56604;48.652;9.194;2024-03-17T07:34:04;8.30;;;6.30;;
69410;SDS011;56604;48.652;9.194;2024-03-17T07:36:29;26.70;;;8.47;;
69410;SDS011;56604;48.652;9.194;2024-03-17T07:38:54;11.03;;;8.40;;
69410;SDS011;56604;48.652;9.194;2024-03-17T07:41:21;8.10;;;7.30;;
69410;SDS011;56604;48.652;9.194;2024-03-17T07:43:49;10.93;;;8.03;;
69410;SDS011;56604;48.652;9.194;2024-03-17T07:46:15;11.70;;;8.30;;
69410;SDS011;56604;48.652;9.194;2024-03-17T07:48:41;9.77;;;8.03;;
69410;SDS011;56604;48.652;9.194;2024-03-17T07:51:10;9.30;;;8.30;;
69410;SDS011;56604;48.652;9.194;2024-03-17T07:53:39;8.27;;;7.47;;
69410;SDS011;56604;48.652;9.194;2024-03-17T07:56:09;8.03;;;7.23;;
69410;SDS011;56604;48.652;9.194;2024-03-17T07:58:37;7.93;;;7.10;;
69410;SDS011;56604;48.652;9.194;2024-03-17T08:01:04;7.50;;;6.70;;
69410;SDS011;56604;48.652;9.194;2024-03-17T08:03:31;7.20;;;6.10;;
69410;SDS011;56604;48.652;9.194;2024-03-17T08:05:58;8.50;;;7.07;;
69410;SDS011;56604;48.652;9.194;2024-03-17T08:08:25;8.63;;;7.00;;
69410;SDS011;56604;48.652;9.194;2024-03-17T08:10:50;8.33;;;7.50;;
69410;SDS011;56604;48.652;9.194;2024-03-17T08:13:19;9.80;;;7.40;;
69410;SDS011;56604;48.652;9.194;2024-03-17T08:15:46;13.27;;;7.60;;
69410;SDS011;56604;48.652;9.194;2024-03-17T08:18:12;7.67;;;6.93;;
69410;SDS011;56604;48.652;9.194;2024-03-17T08:20:41;9.07;;;7.30;;
69410;SDS011;56604;48.652;9.194;2024-03-17T08:23:11;11.30;;;7.90;;
69410;SDS011;56604;48.652;9.194;2024-03-17T08:25:37;8.80;;;7.27;;
69410;SDS011;56604;48.652;9.194;2024-03-17T08:28:03;9.40;;;8.10;;
69410;SDS011;56604;48.652;9.194;2024-03-17T08:30:29;10.83;;;8.30;;
69410;SDS011;56604;48.652;9.194;2024-03-17T08:32:55;7.73;;;7.03;;
69410;SDS011;56604;48.652;9.194;2024-03-17T08:35:21;9.40;;;7.47;;
69410;SDS011;56604;48.652;9.194;2024-03-17T08:37:46;23.93;;;8.90;;
69410;SDS011;56604;48.652;9.194;2024-03-17T08:40:12;11.40;;;8.40;;
69410;SDS011;56604;48.652;9.194;2024-03-17T08:42:37;11.73;;;8.17;;
69410;SDS011;56604;48.652;9.194;2024-03-17T08:45:03;13.60;;;7.73;;
69410;SDS011;56604;48.652;9.194;2024-03-17T08:47:29;14.67;;;7.90;;
69410;SDS011;56604;48.652;9.194;2024-03-17T08:49:54;13.10;;;8.83;;
69410;SDS011;56604;48.652;9.194;2024-03-17T08:52:20;10.77;;;8.67;;
69410;SDS011;56604;48.652;9.194;2024-03-17T08:54:48;12.67;;;9.43;;
69410;SDS011;56604;48.652;9.194;2024-03-17T08:57:13;12.27;;;9.10;;
69410;SDS011;56604;48.652;9.194;2024-03-17T08:59:39;11.30;;;8.40;;
69410;SDS011;56604;48.652;9.194;2024-03-17T09:02:05;10.97;;;8.07;;
69410;SDS011;56604;48.652;9.194;2024-03-17T09:04:31;10.73;;;8.40;;
69410;SDS011;56604;48.652;9.194;2024-03-17T09:06:56;11.60;;;9.13;;
69410;SDS011;56604;48.652;9.194;2024-03-17T09:09:22;10.70;;;8.50;;
69410;SDS011;56604;48.652;9.194;2024-03-17T09:11:49;11.13;;;8.80;;
69410;SDS011;56604;48.652;9.194;2024-03-17T09:14:16;13.40;;;9.57;;
69410;SDS011;56604;48.652;9.194;2024-03-17T09:16:41;9.53;;;7.60;;
69410;SDS011;56604;48.652;9.194;2024-03-17T09:19:08;9.23;;;8.07;;
69410;SDS011;56604;48.652;9.194;2024-03-17T09:21:34;20.17;;;7.67;;
69410;SDS011;56604;48.652;9.194;2024-03-17T09:23:59;10.50;;;6.97;;
69410;SDS011;56604;48.652;9.194;2024-03-17T09:26:25;9.17;;;7.30;;
69410;SDS011;56604;48.652;9.194;2024-03-17T09:28:50;8.53;;;7.30;;
69410;SDS011;56604;48.652;9.194;2024-03-17T09:31:17;7.03;;;6.33;;
69410;SDS011;56604;48.652;9.194;2024-03-17T09:33:42;8.37;;;7.10;;
69410;SDS011;56604;48.652;9.194;2024-03-17T09:36:08;6.23;;;5.50;;
69410;SDS011;56604;48.652;9.194;2024-03-17T09:38:38;6.43;;;5.73;;
69410;SDS011;56604;48.652;9.194;2024-03-17T09:41:06;6.40;;;5.80;;
69410;SDS011;56604;48.652;9.194;2024-03-17T09:43:32;6.43;;;5.33;;
69410;SDS011;56604;48.652;9.194;2024-03-17T09:46:01;6.43;;;5.83;;
69410;SDS011;56604;48.652;9.194;2024-03-17T09:48:27;7.57;;;5.80;;
69410;SDS011;56604;48.652;9.194;2024-03-17T09:51:00;6.03;;;5.43;;
69410;SDS011;56604;48.652;9.194;2024-03-17T09:53:27;7.50;;;5.23;;
69410;SDS011;56604;48.652;9.194;2024-03-17T09:55:58;8.50;;;4.90;;
69410;SDS011;56604;48.652;9.194;2024-03-17T09:58:26;5.33;;;4.83;;
69410;SDS011;56604;48.652;9.194;2024-03-17T10:00:51;7.87;;;5.23;;
69410;SDS011;56604;48.652;9.194;2024-03-17T10:03:39;7.80;;;4.83;;
69410;SDS011;56604;48.652;9.194;2024-03-17T10:06:06;4.73;;;4.30;;
69410;SDS011;56604;48.652;9.194;2024-03-17T10:08:32;5.30;;;4.80;;
69410;SDS011;56604;48.652;9.194;2024-03-17T10:10:59;5.00;;;4.50;;
69410;SDS011;56604;48.652;9.194;2024-03-17T10:13:24;4.73;;;4.37;;
69410;SDS011;56604;48.652;9.194;2024-03-17T10:15:50;6.10;;;5.00;;
69410;SDS011;56604;48.652;9.194;2024-03-17T10:18:22;8.13;;;4.80;;
69410;SDS011;56604;48.652;9.194;2024-03-17T10:20:48;4.90;;;4.37;;
69410;SDS011;56604;48.652;9.194;2024-03-17T10:23:21;6.10;;;3.90;;
69410;SDS011;56604;48.652;9.194;2024-03-17T10:25:47;4.40;;;4.00;;
69410;SDS011;56604;48.652;9.194;2024-03-17T10:28:13;4.23;;;3.93;;
69410;SDS011;56604;48.652;9.194;2024-03-17T10:30:40;4.13;;;3.70;;
69410;SDS011;56604;48.652;9.194;2024-03-17T10:33:07;4.27;;;3.97;;
69410;SDS011;56604;48.652;9.194;2024-03-17T10:35:47;9.17;;;4.30;;
69410;SDS011;56604;48.652;9.194;2024-03-17T10:38:12;8.93;;;3.93;;
69410;SDS011;56604;48.652;9.194;2024-03-17T10:40:38;3.97;;;3.67;;
69410;SDS011;56604;48.652;9.194;2024-03-17T10:43:04;4.33;;;3.60;;
69410;SDS011;56604;48.652;9.194;2024-03-17T10:45:30;4.10;;;3.80;;
69410;SDS011;56604;48.652;9.194;2024-03-17T10:48:06;4.10;;;3.67;;
69410;SDS011;56604;48.652;9.194;2024-03-17T10:50:34;4.03;;;3.63;;
69410;SDS011;56604;48.652;9.194;2024-03-17T10:53:02;4.60;;;4.20;;
69410;SDS011;56604;48.652;9.194;2024-03-17T10:55:36;7.90;;;3.63;;
69410;SDS011;56604;48.652;9.194;2024-03-17T10:58:53;8.90;;;4.33;;
69410;SDS011;56604;48.652;9.194;2024-03-17T11:01:06;4.40;;;3.60;;
69410;SDS011;56604;48.652;9.194;2024-03-17T11:03:36;3.90;;;3.70;;
69410;SDS011;56604;48.652;9.194;2024-03-17T11:06:04;4.33;;;3.93;;
69410;SDS011;56604;48.652;9.194;2024-03-17T11:08:33;3.97;;;3.63;;
69410;SDS011;56604;48.652;9.194;2024-03-17T11:10:59;3.97;;;3.57;;
69410;SDS011;56604;48.652;9.194;2024-03-17T11:13:28;4.10;;;3.67;;
69410;SDS011;56604;48.652;9.194;2024-03-17T11:15:57;4.53;;;4.10;;
69410;SDS011;56604;48.652;9.194;2024-03-17T11:23:26;6.10;;;3.63;;
69410;SDS011;56604;48.652;9.194;2024-03-17T11:25:53;4.47;;;3.53;;
69410;SDS011;56604;48.652;9.194;2024-03-17T11:28:44;3.70;;;3.40;;
69410;SDS011;56604;48.652;9.194;2024-03-17T11:36:55;6.63;;;3.70;;
69410;SDS011;56604;48.652;9.194;2024-03-17T11:39:21;3.33;;;3.13;;
69410;SDS011;56604;48.652;9.194;2024-03-17T11:42:25;5.30;;;3.30;;
69410;SDS011;56604;48.652;9.194;2024-03-17T11:44:54;3.90;;;3.60;;
69410;SDS011;56604;48.652;9.194;2024-03-17T11:47:21;4.07;;;3.13;;
69410;SDS011;56604;48.652;9.194;2024-03-17T11:49:46;3.87;;;3.47;;
69410;SDS011;56604;48.652;9.194;2024-03-17T11:54:42;5.03;;;3.90;;
69410;SDS011;56604;48.652;9.194;2024-03-17T11:57:12;8.60;;;3.10;;
69410;SDS011;56604;48.652;9.194;2024-03-17T11:59:39;3.30;;;3.10;;
69410;SDS011;56604;48.652;9.194;2024-03-17T12:02:24;2.70;;;2.50;;
69410;SDS011;56604;48.652;9.194;2024-03-17T12:04:56;2.83;;;2.60;;
69410;SDS011;56604;48.652;9.194;2024-03-17T12:07:23;2.83;;;2.63;;
69410;SDS011;56604;48.652;9.194;2024-03-17T12:09:49;5.03;;;2.70;;
69410;SDS011;56604;48.652;9.194;2024-03-17T12:12:17;2.23;;;2.03;;
69410;SDS011;56604;48.652;9.194;2024-03-17T12:15:02;1.57;;;1.47;;
69410;SDS011;56604;48.652;9.194;2024-03-17T12:17:36;7.60;;;1.87;;
69410;SDS011;56604;48.652;9.194;2024-03-17T12:20:02;1.47;;;1.37;;
69410;SDS011;56604;48.652;9.194;2024-03-17T12:22:29;3.83;;;1.77;;
69410;SDS011;56604;48.652;9.194;2024-03-17T12:25:00;7.47;;;2.10;;
69410;SDS011;56604;48.652;9.194;2024-03-17T12:27:27;2.20;;;1.60;;
69410;SDS011;56604;48.652;9.194;2024-03-17T12:29:53;1.83;;;1.53;;
69410;SDS011;56604;48.652;9.194;2024-03-17T12:32:20;6.13;;;2.00;;
69410;SDS011;56604;48.652;9.194;2024-03-17T12:34:52;1.30;;;1.30;;
69410;SDS011;56604;48.652;9.194;2024-03-17T12:37:19;6.60;;;1.87;;
69410;SDS011;56604;48.652;9.194;2024-03-17T12:39:46;2.73;;;1.60;;
69410;SDS011;56604;48.652;9.194;2024-03-17T12:42:12;3.07;;;1.50;;
69410;SDS011;56604;48.652;9.194;2024-03-17T12:47:20;6.30;;;2.00;;
69410;SDS011;56604;48.652;9.194;2024-03-17T12:54:45;3.43;;;1.70;;
69410;SDS011;56604;48.652;9.194;2024-03-17T12:57:40;4.30;;;2.27;;
69410;SDS011;56604;48.652;9.194;2024-03-17T13:00:25;3.87;;;1.70;;
69410;SDS011;56604;48.652;9.194;2024-03-17T13:02:56;3.13;;;1.30;;
69410;SDS011;56604;48.652;9.194;2024-03-17T13:05:23;3.30;;;1.60;;
69410;SDS011;56604;48.652;9.194;2024-03-17T13:07:49;1.90;;;1.50;;
69410;SDS011;56604;48.652;9.194;2024-03-17T13:10:16;1.60;;;1.50;;
69410;SDS011;56604;48.652;9.194;2024-03-17T13:12:42;1.27;;;1.23;;
69410;SDS011;56604;48.652;9.194;2024-03-17T13:15:13;2.57;;;2.37;;
69410;SDS011;56604;48.652;9.194;2024-03-17T13:17:40;3.23;;;1.97;;
69410;SDS011;56604;48.652;9.194;2024-03-17T13:20:06;2.03;;;1.40;;
69410;SDS011;56604;48.652;9.194;2024-03-17T13:22:36;3.07;;;1.47;;
69410;SDS011;56604;48.652;9.194;2024-03-17T13:25:04;2.10;;;1.73;;
69410;SDS011;56604;48.652;9.194;2024-03-17T13:27:30;6.30;;;1.60;;
69410;SDS011;56604;48.652;9.194;2024-03-17T13:29:55;4.30;;;1.80;;
69410;SDS011;56604;48.652;9.194;2024-03-17T13:32:21;2.33;;;1.80;;
69410;SDS011;56604;48.652;9.194;2024-03-17T13:34:46;1.80;;;1.50;;
69410;SDS011;56604;48.652;9.194;2024-03-17T13:37:12;2.67;;;1.23;;
69410;SDS011;56604;48.652;9.194;2024-03-17T13:39:38;3.60;;;1.80;;
69410;SDS011;56604;48.652;9.194;2024-03-17T13:42:04;3.20;;;1.83;;
69410;SDS011;56604;48.652;9.194;2024-03-17T13:44:29;2.03;;;1.47;;
69410;SDS011;56604;48.652;9.194;2024-03-17T13:46:56;3.57;;;1.63;;
69410;SDS011;56604;48.652;9.194;2024-03-17T13:49:22;2.20;;;1.80;;
69410;SDS011;56604;48.652;9.194;2024-03-17T13:51:47;1.77;;;1.50;;
69410;SDS011;56604;48.652;9.194;2024-03-17T13:54:13;6.60;;;1.60;;
69410;SDS011;56604;48.652;9.194;2024-03-17T13:56:38;3.17;;;1.43;;
69410;SDS011;56604;48.652;9.194;2024-03-17T13:59:03;3.37;;;1.67;;
69410;SDS011;56604;48.652;9.194;2024-03-17T14:01:29;1.60;;;1.50;;
69410;SDS011;56604;48.652;9.194;2024-03-17T14:03:54;3.30;;;2.10;;
69410;SDS011;56604;48.652;9.194;2024-03-17T14:06:19;2.07;;;1.50;;
69410;SDS011;56604;48.652;9.194;2024-03-17T14:08:45;2.70;;;1.20;;
69410;SDS011;56604;48.652;9.194;2024-03-17T14:11:11;2.27;;;1.50;;
69410;SDS011;56604;48.652;9.194;2024-03-17T14:13:38;3.47;;;1.90;;
69410;SDS011;56604;48.652;9.194;2024-03-17T14:16:03;2.10;;;1.40;;
69410;SDS011;56604;48.652;9.194;2024-03-17T14:18:30;6.77;;;1.87;;
69410;SDS011;56604;48.652;9.194;2024-03-17T14:20:57;2.20;;;1.40;;
69410;SDS011;56604;48.652;9.194;2024-03-17T14:23:22;5.07;;;1.57;;
69410;SDS011;56604;48.652;9.194;2024-03-17T14:25:49;3.03;;;1.67;;
69410;SDS011;56604;48.652;9.194;2024-03-17T14:28:14;2.17;;;1.80;;
69410;SDS011;56604;48.652;9.194;2024-03-17T14:30:39;4.53;;;1.57;;
69410;SDS011;56604;48.652;9.194;2024-03-17T14:33:05;1.73;;;1.30;;
69410;SDS011;56604;48.652;9.194;2024-03-17T14:35:32;7.10;;;1.77;;
69410;SDS011;56604;48.652;9.194;2024-03-17T14:37:58;5.07;;;1.30;;
69410;SDS011;56604;48.652;9.194;2024-03-17T14:40:24;1.77;;;1.20;;
69410;SDS011;56604;48.652;9.194;2024-03-17T14:42:50;1.67;;;1.17;;
69410;SDS011;56604;48.652;9.194;2024-03-17T14:45:19;2.30;;;1.33;;
69410;SDS011;56604;48.652;9.194;2024-03-17T14:47:46;6.83;;;1.17;;
69410;SDS011;56604;48.652;9.194;2024-03-17T14:50:12;3.53;;;1.70;;
69410;SDS011;56604;48.652;9.194;2024-03-17T14:52:37;1.30;;;1.20;;
69410;SDS011;56604;48.652;9.194;2024-03-17T14:55:03;1.77;;;1.43;;
69410;SDS011;56604;48.652;9.194;2024-03-17T14:57:29;1.60;;;1.47;;